• Join FlightAware (Why Join?)
  • Login
  • US Flag 
07:35PM EDT


 

Airport Tracker/Info


-or-


 

Live Flight TrackerFlight Track Log ✈ EJA904 ✈ 20-Mar-2014 ✈ KGGE - KIAD

Flight Track Log - Related Links

Times and Time Zones

All times are in EDT time to prevent confusion due to time zone crossing. See the EJA904 flight status page for this flight to view local times or setup timezone preferences in your user account.

Time Position Orientation Groundspeed Altitude Reporting Facility
EDT Latitude Longitude Course Direction KTS MPH feet Rate Location/Type
04:45PM 33.3486 -79.2822 19° North 254 292 5,600  Level Jacksonville Center
04:46PM 33.4228 -79.2519 19° North 260 299 8,900 3,000 Climbing Jacksonville Center
04:47PM 33.5097 -79.2233 15° North 280 322 11,600 2,580 Climbing Jacksonville Center
04:48PM 33.6136 -79.2042 North 328 377 14,100 2,400 Climbing Jacksonville Center
04:49PM 33.7194 -79.1872 North 362 417 16,500 2,280 Climbing Jacksonville Center
04:50PM 33.8397 -79.1644 North 401 461 18,700 2,160 Climbing Jacksonville Center
04:51PM 33.9622 -79.1444 North 429 494 20,900 2,160 Climbing Jacksonville Center
04:52PM 34.0847 -79.1217 North 443 510 23,100 2,040 Climbing Jacksonville Center
04:53PM 34.2153 -79.0983 North 456 525 25,100 1,380 Climbing Jacksonville Center
04:55PM 34.4325 -79.0567 North 486 559 27,000 1,260 Climbing Washington Center
04:56PM 34.5714 -79.0122 15° North 503 579 28,600 1,740 Climbing Washington Center
04:57PM 34.7128 -78.9575 18° North 514 592 30,500 1,860 Climbing Washington Center
04:58PM 34.8519 -78.9050 17° North 520 598 32,400 1,200 Climbing Washington Center
04:59PM 34.9956 -78.8500 17° North 526 605 33,000 300 Climbing Washington Center
05:00PM 35.1367 -78.7947 18° North 526 605 33,000  Level Washington Center
05:01PM 35.2800 -78.7394 17° North 526 605 33,000  Level Washington Center
05:02PM 35.4444 -78.6744 18° North 542 624 33,000  Level Washington Center
05:03PM 35.5942 -78.6139 18° North 555 639 33,000  Level Washington Center
05:04PM 35.7481 -78.5556 17° North 565 650 33,000  Level Washington Center
05:05PM 35.8975 -78.4972 18° North 565 650 33,000 -300 Level Washington Center
05:06PM 36.0450 -78.4383 18° North 565 650 32,500 -1,740 Descending Washington Center
05:07PM 36.1883 -78.3817 18° North 560 644 29,600 -2,280 Descending Washington Center
05:08PM 36.3294 -78.3222 19° North 539 620 28,000 -840 Descending Washington Center
05:09PM 36.4725 -78.2653 18° North 539 620 28,000  Level Washington Center
05:10PM 36.6158 -78.2081 18° North 539 620 28,000 -180 Level Washington Center
05:11PM 36.7569 -78.1456 20° North 534 615 27,700 -540 Descending Washington Center
05:12PM 36.8981 -78.0747 22° Northeast 534 615 27,000 -360 Descending Washington Center
05:13PM 37.0392 -78.0092 20° North 534 615 27,000 -180 Level Washington Center
05:14PM 37.1783 -77.9406 21° North 534 615 26,700 -1,440 Descending Washington Center
05:15PM 37.3153 -77.8742 21° North 534 615 24,100 -2,400 Descending Washington Center
05:16PM 37.4436 -77.8100 22° Northeast 512 589 22,000 -1,080 Descending Washington Center
05:17PM 37.5678 -77.7508 21° North 496 571 22,000 -1,020 Level Washington Center
05:18PM 37.6919 -77.6886 22° Northeast 484 557 20,000 -2,220 Descending Washington Center
05:19PM 37.8097 -77.6289 22° Northeast 472 543 17,600 -2,400 Descending Washington Center
05:20PM 37.9233 -77.5739 21° North 458 527 15,300 -2,160 Descending Washington Center
05:21PM 38.0264 -77.5239 21° North 428 493 13,300 -1,860 Descending Washington Center
05:22PM 38.1125 -77.4761 24° Northeast 352 405 11,600 -1,620 Descending Washington Center
05:23PM 38.1883 -77.4358 23° Northeast 294 338 10,100 -840 Descending Washington Center
05:24PM 38.2617 -77.4111 15° North 280 322 10,000 -660 Descending Washington Center
05:25PM 38.3364 -77.4394 343° North 266 306 8,900 -1,320 Descending Washington Center
05:26PM 38.4089 -77.4650 345° North 266 306 7,500 -960 Descending Washington Center
05:27PM 38.4819 -77.4614 North 266 306 7,000 -300 Descending Washington Center
05:28PM 38.5569 -77.4633 359° North 266 306 7,000 -720 Level Washington Center
05:29PM 38.6300 -77.4625 North 266 306 5,600 -1,740 Descending Washington Center
05:29PM 38.6833 -77.4667 357° North 264 304 4,000 -1,020 Descending Potomac TRACON
05:30PM 38.7667 -77.4667 360° North 242 278 3,800 -720 Descending Potomac TRACON
05:31PM 38.8333 -77.4667 360° North 234 269 2,600 -1,200 Descending Potomac TRACON
05:32PM 38.8833 -77.4667 360° North 175 201 1,500 -900 Descending Potomac TRACON
05:34PM 38.9167 -77.4667 360° North 132 152 800 -660 Descending Potomac TRACON
05:36PM 38.9474 -77.4599 North  Level Estimated
05:43PM 38.9474 -77.4599 195° South  Level Estimated